Latest Coastal Weather Observations for Whyalla

IDS60701

Issued at 2:21 am CST Tuesday 28 June 2022 (issued every 10 minutes, with the page automatically refreshed every 10 minutes)

About coastal observations | Map of coastal stations | Coastal observations for SA | Marine services | Other Formats
Station Details ID: 018120 Name: WHYALLA AERO Lat: -33.05 Lon: 137.52 Height: 9.3 m
Data from the previous 72 hours. | See also: Recent months at Whyalla
Date/Time
CST
Wind Sea
Height
m
Swell Vis
km
Cloud Weather Temp
°C
Press
MSL
hPa
Rain since
9am
mm
Dir  Spd
kts
Gust
kts
Height
m
Period
s
Dir
28/02:00am NNW 5 6 - - - - 10 - - 2.3 1029.8 0.0
28/01:30am NW 5 6 - - - - 10 - - 2.4 1030.1 0.0
28/01:00am NW 5 5 - - - - 10 - - 1.9 1030.3 0.0
28/12:30am NW 4 5 - - - - 10 - - 2.3 1030.6 0.0
28/12:00am NW 5 6 - - - - 10 - - 2.4 1030.9 0.0
 
Date/Time
CST
Wind Sea
Height
m
Swell Vis
km
Cloud Weather Temp
°C
Press
MSL
hPa
Rain since
9am
mm
Dir  Spd
kts
Gust
kts
Height
m
Period
s
Dir
27/11:30pm WNW 5 6 - - - - 10 - - 2.9 1031.2 0.0
27/11:00pm NNW 4 5 - - - - 10 - - 3.1 1031.4 0.0
27/10:30pm NNW 3 4 - - - - 10 - - 3.6 1031.8 0.0
27/10:00pm NNW 4 5 - - - - 10 - - 4.2 1032.0 0.0
27/09:30pm NW 5 5 - - - - 10 - - 4.5 1032.4 0.0
27/09:00pm WNW 3 4 - - - - 10 - - 5.2 1032.5 0.0
27/08:30pm WNW 4 5 - - - - 10 - - 5.5 1032.7 0.0
27/08:00pm SW 4 5 - - - - 10 - - 5.6 1032.5 0.0
27/07:30pm SW 4 4 - - - - 10 - - 7.1 1032.6 0.0
27/07:00pm CALM 0 0 - - - - 10 - - 7.3 1032.4 0.0
27/06:30pm SSE 3 3 - - - - 10 - - 9.2 1032.2 0.0
27/06:00pm SSE 3 5 - - - - 10 - - 10.4 1031.9 0.0
27/05:30pm SSE 4 5 - - - - 10 - - 11.8 1031.9 0.0
27/05:00pm SSE 5 7 - - - - - - - 12.9 1031.8 0.0
27/04:30pm SE 6 7 - - - - - - - 13.3 1031.9 0.0
27/04:00pm SE 6 8 - - - - - - - 13.9 1031.9 0.0
27/03:30pm SE 6 8 - - - - - - - 13.6 1031.9 0.0
27/03:00pm SSE 6 8 - - - - - - - 13.5 1032.2 0.0
27/02:30pm SSE 6 10 - - - - - - - 13.8 1032.5 0.0
27/02:00pm SE 7 9 - - - - - - - 13.6 1032.7 0.0
27/01:30pm ESE 6 9 - - - - - - - 13.9 1032.9 0.0
27/01:00pm SSE 5 9 - - - - - - - 13.6 1033.4 0.0
27/12:30pm SE 7 11 - - - - - - - 13.5 1033.8 0.0
27/12:00pm ESE 7 9 - - - - - - - 13.7 1034.4 0.0
27/11:30am ESE 5 8 - - - - 10 - - 13.8 1035.0 0.0
27/11:00am E 4 8 - - - - 10 - - 13.8 1035.1 0.0
27/10:30am E 4 7 - - - - 10 - - 13.1 1035.0 0.0
27/10:00am NE 3 5 - - - - 10 - - 12.7 1035.1 0.0
27/09:30am CALM 0 0 - - - - 10 - - 11.1 1035.1 0.0
27/09:00am CALM 0 3 - - - - 10 - - 8.0 1035.0 0.0
27/08:30am NW 2 5 - - - - 10 - - 5.7 1034.9 0.0
27/08:00am NW 4 5 - - - - 10 - - 3.4 1034.6 0.0
27/07:30am ENE 4 5 - - - - 10 - - 2.7 1034.2 0.0
27/07:00am ENE 4 5 - - - - 10 - - 3.0 1034.0 0.0
27/06:30am ENE 4 5 - - - - 10 - - 3.4 1033.6 0.0
27/06:00am CALM 0 0 - - - - 10 - - 4.2 1033.3 0.0
27/05:30am ESE 5 6 - - - - 10 - - 8.9 1033.1 0.0
27/05:00am ESE 5 7 - - - - 10 - - 9.3 1032.8 0.0
27/04:30am SE 6 7 - - - - 10 - - 9.4 1032.9 0.0
27/04:00am ESE 5 7 - - - - 10 - - 9.8 1032.9 0.0
27/03:30am ESE 6 8 - - - - 10 - - 10.3 1032.8 0.0
27/03:00am SE 6 8 - - - - 10 - - 10.6 1033.0 0.0
27/02:30am SE 6 8 - - - - 10 Partly cloudy - 10.9 1033.1 0.0
27/02:00am SE 7 9 - - - - 10 Cloudy - 11.6 1033.2 0.0
27/01:30am SE 7 9 - - - - 10 Cloudy - 12.4 1033.0 0.0
27/01:00am SE 7 9 - - - - 10 Partly cloudy - 12.6 1033.0 0.0
27/12:30am SE 6 8 - - - - 10 Cloudy - 12.5 1033.0 0.0
27/12:00am SSE 5 7 - - - - 10 Mostly cloudy - 11.1 1033.1 0.0
 
Date/Time
CST
Wind Sea
Height
m
Swell Vis
km
Cloud Weather Temp
°C
Press
MSL
hPa
Rain since
9am
mm
Dir  Spd
kts
Gust
kts
Height
m
Period
s
Dir
26/11:30pm SSE 4 6 - - - - 10 Partly cloudy - 9.7 1033.0 0.0
26/11:00pm S 4 5 - - - - 10 Partly cloudy - 10.8 1032.8 0.0
26/10:30pm SSE 6 7 - - - - 10 Partly cloudy - 11.6 1032.6 0.0
26/10:00pm SE 5 7 - - - - 10 Partly cloudy - 11.6 1032.4 0.0
26/09:30pm SE 7 8 - - - - 10 Partly cloudy - 12.3 1032.4 0.0
26/09:00pm S 7 11 - - - - 10 Cloudy - 12.7 1032.0 0.0
26/08:30pm S 6 7 - - - - 10 Partly cloudy - 11.7 1031.8 0.0
26/08:00pm SSW 8 10 - - - - 10 Partly cloudy - 12.6 1031.7 0.0
26/07:30pm SSW 10 12 - - - - 10 Partly cloudy - 13.4 1031.5 0.0
26/07:00pm SSW 10 13 - - - - 10 Partly cloudy - 13.6 1031.2 0.0
26/06:30pm SSW 12 16 - - - - 10 - - 13.4 1030.9 0.0
26/06:00pm S 12 17 - - - - 10 - - 13.5 1030.3 0.0
26/05:30pm S 11 16 - - - - 10 - - 14.0 1029.8 0.0
26/05:00pm SSE 8 12 - - - - 10 - - 14.5 1029.5 0.0
26/04:30pm SE 7 9 - - - - 10 - - 14.7 1029.3 0.0
26/04:00pm ESE 7 9 - - - - 10 - - 15.2 1029.0 0.0
26/03:30pm SE 7 9 - - - - 10 - - 15.6 1028.7 0.0
26/03:00pm SE 9 13 - - - - 10 Mostly clear - 15.9 1028.6 0.0
26/02:30pm SE 8 12 - - - - 10 Partly cloudy - 16.0 1028.5 0.0
26/02:00pm SE 8 11 - - - - 10 Partly cloudy - 16.4 1028.4 0.0
26/01:30pm SE 7 10 - - - - 10 Partly cloudy - 16.8 1028.4 0.0
26/01:00pm SE 9 11 - - - - 10 - - 16.4 1028.6 0.0
26/12:30pm S 7 9 - - - - 10 Partly cloudy - 16.8 1028.7 0.0
26/12:00pm S 6 11 - - - - 10 Partly cloudy - 16.1 1029.1 0.0
26/11:30am SSW 11 15 - - - - 10 Partly cloudy - 16.3 1029.6 0.0
26/11:00am SSW 8 12 - - - - 10 - - 16.2 1029.9 0.0
26/10:30am N 4 6 - - - - 10 - - 14.9 1029.8 0.0
26/10:00am NNW 5 6 - - - - 10 - - 13.7 1029.7 0.0
26/09:30am NW 5 7 - - - - 10 - - 12.3 1029.6 0.0
26/09:00am NW 5 5 - - - - 10 Partly cloudy - 10.5 1029.3 0.0
26/08:30am NNW 5 6 - - - - 10 Partly cloudy - 9.3 1029.0 0.0
26/08:00am NNW 6 7 - - - - 10 Partly cloudy - 9.0 1028.5 0.0
26/07:30am NNW 6 7 - - - - 10 Cloudy - 8.6 1028.1 0.0
26/07:00am CALM 0 3 - - - - 10 Cloudy - 8.1 1027.9 0.0
26/06:30am NNW 6 7 - - - - 10 Partly cloudy - 7.8 1027.2 0.0
26/06:00am NNW 7 7 - - - - 10 Mostly clear - 7.4 1026.8 0.0
26/05:30am NW 7 9 - - - - 10 Partly cloudy - 8.0 1026.7 0.0
26/05:00am NW 6 7 - - - - 10 Partly cloudy - 7.4 1026.6 0.0
26/04:30am NW 6 7 - - - - 10 - - 7.4 1026.5 0.0
26/04:00am NW 6 7 - - - - 10 - - 7.4 1026.3 0.0
26/03:30am NW 7 8 - - - - 10 - - 7.9 1026.5 0.0
26/03:00am NW 6 6 - - - - 10 - - 8.1 1026.2 0.0
26/02:30am NW 6 6 - - - - 10 - - 8.3 1026.1 0.0
26/02:00am NW 6 7 - - - - 10 - - 8.7 1026.3 0.0
26/01:30am WNW 7 7 - - - - 10 - - 9.5 1026.1 0.0
26/01:00am NW 4 5 - - - - 10 Partly cloudy - 10.6 1026.0 0.0
26/12:30am CALM 0 0 - - - - 10 - - 11.2 1026.1 0.0
26/12:00am NNW 5 6 - - - - 10 Cloudy - 11.1 1026.0 0.0
 
Date/Time
CST
Wind Sea
Height
m
Swell Vis
km
Cloud Weather Temp
°C
Press
MSL
hPa
Rain since
9am
mm
Dir  Spd
kts
Gust
kts
Height
m
Period
s
Dir
25/11:30pm WNW 3 5 - - - - 10 Cloudy - 11.0 1026.1 0.0
25/11:00pm WNW 3 5 - - - - 10 - - 11.4 1026.1 0.0
25/10:30pm WSW 1 3 - - - - 10 Cloudy - 11.8 1026.0 0.0
25/10:00pm SW 5 6 - - - - 10 Cloudy - 11.8 1025.9 0.0
25/09:30pm SW 3 4 - - - - 10 Cloudy - 11.1 1025.7 0.0
25/09:00pm E 4 5 - - - - 10 Cloudy - 11.0 1025.6 0.0
25/08:30pm ENE 5 6 - - - - 10 Cloudy - 11.0 1025.2 0.0
25/08:00pm ENE 1 5 - - - - 10 Cloudy - 10.9 1024.8 0.0
25/07:30pm ENE 2 4 - - - - 10 Partly cloudy - 12.1 1024.6 0.0
25/07:00pm ENE 3 4 - - - - 10 Partly cloudy - 12.3 1024.4 0.0
25/06:30pm ENE 4 5 - - - - 10 Partly cloudy - 13.1 1024.1 0.0
25/06:00pm ENE 4 5 - - - - 10 Mostly clear - 13.0 1023.7 0.0
25/05:30pm ENE 5 6 - - - - 10 - - 13.9 1023.3 0.0
25/05:00pm E 5 7 - - - - 10 Partly cloudy - 15.5 1023.2 0.0
25/04:30pm E 4 6 - - - - 10 Partly cloudy - 16.3 1023.1 0.0
25/04:00pm E 6 8 - - - - 10 Cloudy - 16.0 1023.1 0.0
25/03:30pm WSW 8 11 - - - - 10 Partly cloudy - 16.9 1023.1 0.0
25/03:00pm W 6 10 - - - - 10 Mostly cloudy - 16.8 1023.0 0.0
25/02:30pm SW 7 10 - - - - 10 Partly cloudy - 17.3 1023.1 0.0
25/02:00pm SW 9 17 - - - - 10 Cloudy - 17.0 1023.3 0.0
25/01:30pm W 8 12 - - - - 10 Partly cloudy - 16.4 1023.5 0.0
25/01:00pm WSW 8 11 - - - - 10 Cloudy - 16.2 1023.8 0.0
25/12:30pm WSW 8 10 - - - - 10 Partly cloudy - 16.3 1024.0 0.0
25/12:00pm WNW 6 9 - - - - 10 Partly cloudy - 16.1 1024.2 0.0
25/11:30am WNW 6 10 - - - - 10 - - 15.9 1024.4 0.0
25/11:00am WNW 5 7 - - - - 10 - - 14.9 1024.5 0.0
25/10:30am WNW 6 7 - - - - 10 - - 14.2 1024.7 0.0
25/10:00am WNW 6 7 - - - - 10 - - 12.4 1024.7 0.0
25/09:30am WNW 6 7 - - - - 10 Cloudy - 11.4 1024.4 0.0
25/09:00am NW 5 7 - - - - 10 Mostly cloudy - 10.3 1024.1 1.2
25/08:30am NNW 5 6 - - - - 10 Partly cloudy - 9.5 1024.0 1.2
25/08:00am N 6 6 - - - - 10 - - 7.2 1023.7 1.2
25/07:30am NW 5 6 - - - - 10 Partly cloudy - 7.6 1023.4 1.2
25/07:00am NNW 3 5 - - - - 10 Partly cloudy - 7.4 1023.2 1.2
25/06:30am NNW 6 7 - - - - 10 Partly cloudy - 7.5 1022.8 1.2
25/06:00am NNW 4 6 - - - - 10 Mostly cloudy - 8.0 1022.5 1.2
25/05:30am NNW 5 6 - - - - 10 Partly cloudy - 6.5 1022.1 1.2
25/05:00am WNW 6 7 - - - - 10 - - 7.7 1021.8 1.2
25/04:30am NNW 5 6 - - - - 10 Partly cloudy - 9.0 1021.5 1.2
25/04:00am NW 5 6 - - - - 10 Partly cloudy - 8.8 1021.4 1.2
25/03:30am NW 4 5 - - - - 10 Cloudy - 9.7 1021.3 1.2
25/03:00am NW 5 6 - - - - 10 Mostly cloudy - 10.3 1021.4 1.2
25/02:30am WNW 5 6 - - - - 10 Partly cloudy - 10.5 1021.4 1.2

Other formats

Comma delimited format used in spreadsheet applications
http://www.bom.gov.au/fwo/IDS60701/IDS60701.95664.axf

JavaScript Object Notation format (JSON) in row-major order
http://www.bom.gov.au/fwo/IDS60701/IDS60701.95664.json

Data quality

Most of these data are generated automatically and are frequently updated. Quality checks on data are not normally performed. It is possible for incorrect values to appear. Refer to information at About Latest Weather Observations and please check the disclaimer before using these data.